Main page
METAR-TAF:

METAR-TAF

Airports :

Aéroport de Nevers-Fourchambault

Nevers, France

latitude: 47-00N, longitude: 003-06E, elevation: 180 m

Current weather observation

The report was made 9 hours and 29 minutes ago, at 09:30 UTC
Wind 8 kt from the South/Southeast, varying between Southeast and South
Temperature 12°C
Humidity 94%
Pressure 1000 hPa
Visibility 10 km or more
light rain

METAR: LFQG 240930Z AUTO 16008KT 130V190 9999 -RA FEW025/// BKN058/// OVC070/// ///TCU 12/11 Q1000

Time: 20:59 (18:59 UTC)


TAF: missing

Weather observations and forecasts of more than 4000 airports (METAR and TAF reports).

The available stations are represented by yellow and red dots on the map.

Hover mouse over dot to see the name of the station.

Then click to see weather observations and forecasts.

To change the map : click on the green buttons with a black cross to zoom in, on the green button with a dash to zoom out, or on the green arrows for adjacent maps.


METAR-TAF: